createdAt,value
2024-04-03T00:00:08.804Z,0.60
2024-04-03T00:02:57.332Z,0.60
2024-04-03T00:05:25.419Z,0.60
2024-04-03T00:07:53.649Z,0.40
2024-04-03T00:10:21.882Z,0.70
2024-04-03T00:12:50.134Z,0.30
2024-04-03T00:15:18.311Z,0.40
2024-04-03T00:17:46.425Z,0.20
2024-04-03T00:20:14.405Z,0.40
2024-04-03T00:22:42.331Z,0.30
2024-04-03T00:25:10.637Z,0.30
2024-04-03T00:27:39.140Z,0.30
2024-04-03T00:30:09.088Z,0.20
2024-04-03T00:32:37.217Z,0.10
2024-04-03T00:35:06.724Z,0.20
2024-04-03T00:37:36.838Z,0.40
2024-04-03T00:40:05.796Z,0.40
2024-04-03T00:42:33.849Z,0.30
2024-04-03T00:45:02.076Z,0.40
2024-04-03T00:47:30.628Z,0.30
2024-04-03T00:49:59.718Z,0.40
2024-04-03T00:52:27.792Z,0.20
2024-04-03T00:54:56.218Z,0.30
2024-04-03T00:57:24.576Z,0.30
2024-04-03T00:59:53.261Z,0.30
2024-04-03T01:02:21.543Z,0.40
2024-04-03T01:04:49.973Z,0.40
2024-04-03T01:07:18.274Z,0.40
2024-04-03T01:09:46.689Z,0.70
2024-04-03T01:12:14.966Z,0.50
2024-04-03T01:14:43.210Z,1.30
2024-04-03T01:17:11.432Z,1.00
2024-04-03T01:19:39.608Z,0.70
2024-04-03T01:22:07.552Z,0.40
2024-04-03T01:24:36.085Z,0.40
2024-04-03T01:27:04.624Z,0.50
2024-04-03T01:29:34.659Z,0.50
2024-04-03T01:32:03.617Z,0.40
2024-04-03T01:34:32.321Z,0.40
2024-04-03T01:37:00.335Z,0.50
2024-04-03T01:39:30.178Z,0.50
2024-04-03T01:41:58.427Z,0.50
2024-04-03T01:44:26.837Z,0.70
2024-04-03T01:46:55.036Z,0.50
2024-04-03T01:49:23.168Z,0.60
2024-04-03T01:51:51.397Z,0.50
2024-04-03T01:54:19.345Z,0.50
2024-04-03T01:56:47.317Z,0.60
2024-04-03T01:59:43.653Z,0.60
2024-04-03T02:02:12.104Z,0.40
2024-04-03T02:04:40.128Z,0.40
2024-04-03T02:07:08.331Z,0.50
2024-04-03T02:09:36.884Z,0.60
2024-04-03T02:12:06.350Z,0.80
2024-04-03T02:14:34.549Z,0.50
2024-04-03T02:17:03.379Z,0.60
2024-04-03T02:19:31.811Z,0.80
2024-04-03T02:21:59.822Z,0.80
2024-04-03T02:24:27.907Z,0.40
2024-04-03T02:26:56.309Z,0.70
2024-04-03T02:29:24.829Z,0.30
2024-04-03T02:31:53.151Z,0.70
2024-04-03T02:34:21.387Z,0.70
2024-04-03T02:36:49.864Z,0.50
2024-04-03T02:39:17.997Z,0.30
2024-04-03T02:41:45.926Z,0.90
2024-04-03T02:44:14.175Z,0.50
2024-04-03T02:46:42.348Z,0.50
2024-04-03T02:49:11.658Z,0.40
2024-04-03T02:51:39.682Z,0.70
2024-04-03T02:54:07.698Z,0.50
2024-04-03T02:56:35.737Z,0.90
2024-04-03T02:59:03.642Z,0.70
2024-04-03T03:01:32.025Z,0.50
2024-04-03T03:04:01.723Z,0.40
2024-04-03T03:06:29.688Z,0.60
2024-04-03T03:08:57.808Z,3.80
2024-04-03T03:11:25.903Z,2.10
2024-04-03T03:13:54.250Z,1.40
2024-04-03T03:16:23.516Z,1.00
2024-04-03T03:18:51.472Z,1.70
2024-04-03T03:21:19.740Z,0.50
2024-04-03T03:23:47.791Z,1.70
2024-04-03T03:26:16.016Z,0.70
2024-04-03T03:28:44.300Z,1.10
2024-04-03T03:31:14.269Z,0.80
2024-04-03T03:33:42.571Z,0.40
2024-04-03T03:36:10.647Z,0.50
2024-04-03T03:38:39.337Z,1.00
2024-04-03T03:41:07.551Z,0.90
2024-04-03T03:43:35.790Z,0.80
2024-04-03T03:46:04.897Z,0.80
2024-04-03T03:48:51.795Z,2.60
2024-04-03T03:51:38.569Z,4.30
2024-04-03T03:54:07.895Z,2.40
2024-04-03T03:56:42.791Z,2.50
2024-04-03T03:59:12.768Z,2.90
2024-04-03T04:01:40.802Z,2.30
2024-04-03T04:04:09.355Z,2.50
2024-04-03T04:06:37.592Z,4.30
2024-04-03T04:09:06.027Z,5.30
2024-04-03T04:11:34.148Z,7.50
2024-04-03T04:14:02.390Z,5.10
2024-04-03T04:16:30.722Z,3.30
2024-04-03T04:18:58.955Z,2.40
2024-04-03T04:21:29.197Z,2.30
2024-04-03T04:23:57.194Z,1.70
2024-04-03T04:26:25.162Z,1.50
2024-04-03T04:28:53.095Z,5.90
2024-04-03T04:31:21.410Z,4.80
2024-04-03T04:33:49.693Z,2.70
2024-04-03T04:36:17.953Z,1.40
2024-04-03T04:38:46.618Z,1.50
2024-04-03T04:41:14.720Z,1.70
2024-04-03T04:43:42.675Z,1.80
2024-04-03T04:46:10.954Z,2.00
2024-04-03T04:48:38.952Z,1.40
2024-04-03T04:51:07.304Z,1.10
2024-04-03T04:53:35.500Z,1.50
2024-04-03T04:56:05.574Z,1.30
2024-04-03T04:58:33.763Z,1.70
2024-04-03T05:01:02.000Z,1.30
2024-04-03T05:03:30.374Z,1.60
2024-04-03T05:05:59.065Z,1.90
2024-04-03T05:08:27.715Z,1.50
2024-04-03T05:10:58.210Z,1.60
2024-04-03T05:13:33.840Z,1.60
2024-04-03T05:16:09.628Z,1.60
2024-04-03T05:18:38.020Z,1.60
2024-04-03T05:21:06.458Z,2.00
2024-04-03T05:23:34.833Z,2.60
2024-04-03T05:26:06.393Z,1.60
2024-04-03T05:28:36.401Z,2.20
2024-04-03T05:31:10.294Z,1.50
2024-04-03T05:33:39.944Z,1.60
2024-04-03T05:36:09.677Z,2.30
2024-04-03T05:38:42.969Z,2.20
2024-04-03T05:41:13.520Z,2.00
2024-04-03T05:43:42.180Z,1.30
2024-04-03T05:46:10.397Z,1.30
2024-04-03T05:48:38.786Z,0.90
2024-04-03T05:51:08.859Z,1.20
2024-04-03T05:53:37.353Z,0.90
2024-04-03T05:56:06.230Z,1.00
2024-04-03T05:58:35.288Z,1.30
2024-04-03T06:01:04.787Z,0.90
2024-04-03T06:03:33.491Z,1.00
2024-04-03T06:06:01.954Z,0.90
2024-04-03T06:08:30.287Z,1.40
2024-04-03T06:10:58.561Z,1.50
2024-04-03T06:13:26.669Z,5.40
2024-04-03T06:15:55.772Z,2.30
2024-04-03T06:18:24.683Z,1.70
2024-04-03T06:20:53.115Z,2.40
2024-04-03T06:23:23.651Z,2.40
2024-04-03T06:25:52.292Z,2.00
2024-04-03T06:28:20.244Z,2.70
2024-04-03T06:30:48.430Z,2.00
2024-04-03T06:33:17.856Z,1.90
2024-04-03T06:35:46.094Z,1.60
2024-04-03T06:38:14.838Z,1.40
2024-04-03T06:40:44.028Z,1.30
2024-04-03T06:43:12.086Z,1.50
2024-04-03T06:45:40.326Z,1.80
2024-04-03T06:48:08.634Z,1.40
2024-04-03T06:50:36.631Z,2.20
2024-04-03T06:53:05.031Z,1.60
2024-04-03T06:55:32.988Z,2.10
2024-04-03T06:58:02.694Z,1.80
2024-04-03T07:00:32.110Z,1.80
2024-04-03T07:03:00.514Z,1.50
2024-04-03T07:05:29.065Z,1.90
2024-04-03T07:07:57.340Z,1.60
2024-04-03T07:10:25.747Z,1.50
2024-04-03T07:12:53.856Z,1.90
2024-04-03T07:15:22.116Z,1.80
2024-04-03T07:17:50.835Z,1.10
2024-04-03T07:20:19.199Z,1.50
2024-04-03T07:22:47.516Z,1.40
2024-04-03T07:25:16.866Z,1.30
2024-04-03T07:27:50.342Z,2.00
2024-04-03T07:30:20.027Z,1.60
2024-04-03T07:32:48.755Z,1.60
2024-04-03T07:35:16.901Z,0.80
2024-04-03T07:37:47.987Z,1.20
2024-04-03T07:40:16.610Z,0.90
2024-04-03T07:42:45.812Z,1.00
2024-04-03T07:45:13.792Z,1.20
2024-04-03T07:47:42.384Z,1.00
2024-04-03T07:50:10.504Z,0.70
2024-04-03T07:52:41.724Z,1.10
2024-04-03T07:55:11.640Z,1.00
2024-04-03T07:57:40.476Z,0.90
2024-04-03T08:00:10.395Z,0.80
2024-04-03T08:02:43.520Z,1.10
2024-04-03T08:05:13.540Z,0.60
2024-04-03T08:07:45.774Z,0.70
2024-04-03T08:10:14.232Z,0.90
2024-04-03T08:12:42.769Z,0.60
2024-04-03T08:15:13.155Z,1.10
2024-04-03T08:17:41.598Z,1.00
2024-04-03T08:20:11.896Z,0.70
2024-04-03T08:22:40.242Z,1.10
2024-04-03T08:25:08.458Z,1.20
2024-04-03T08:27:36.750Z,2.00
2024-04-03T08:30:07.100Z,1.80
2024-04-03T08:32:35.976Z,1.40
2024-04-03T08:35:05.197Z,1.60
2024-04-03T08:37:38.298Z,0.60
2024-04-03T08:40:16.130Z,0.90
2024-04-03T08:42:44.291Z,1.20
2024-04-03T08:45:16.138Z,1.10
2024-04-03T08:47:46.160Z,0.80
2024-04-03T08:50:14.180Z,0.80
2024-04-03T08:52:43.448Z,0.40
2024-04-03T08:55:15.932Z,0.60
2024-04-03T08:57:44.977Z,0.40
2024-04-03T09:00:14.898Z,0.70
2024-04-03T09:02:43.029Z,0.30
2024-04-03T09:05:11.908Z,0.60
2024-04-03T09:07:40.331Z,0.70
2024-04-03T09:10:09.189Z,0.60
2024-04-03T09:12:37.256Z,1.70
2024-04-03T09:15:11.195Z,0.50
2024-04-03T09:17:39.333Z,0.40
2024-04-03T09:20:08.443Z,0.60
2024-04-03T09:22:37.688Z,0.50
2024-04-03T09:25:06.179Z,0.60
2024-04-03T09:27:34.098Z,0.70
2024-04-03T09:30:02.823Z,0.50
2024-04-03T09:32:30.794Z,0.70
2024-04-03T09:35:00.122Z,0.50
2024-04-03T09:37:28.191Z,0.70
2024-04-03T09:39:56.299Z,0.50
2024-04-03T09:42:26.053Z,0.50
2024-04-03T09:44:59.793Z,0.70
2024-04-03T09:47:30.350Z,6.60
2024-04-03T09:50:01.914Z,2.00
2024-04-03T09:52:31.619Z,0.60
2024-04-03T09:55:00.177Z,0.60
2024-04-03T09:57:28.692Z,0.30
2024-04-03T09:59:58.683Z,0.60
2024-04-03T10:02:26.819Z,0.60
2024-04-03T10:04:59.110Z,0.40
2024-04-03T10:07:31.218Z,0.40
2024-04-03T10:09:59.515Z,0.30
2024-04-03T10:12:29.569Z,0.70
2024-04-03T10:14:58.843Z,0.50
2024-04-03T10:17:38.474Z,0.30
2024-04-03T10:20:07.934Z,0.40
2024-04-03T10:22:36.177Z,0.50
2024-04-03T10:25:07.423Z,0.50
2024-04-03T10:27:35.524Z,0.50
2024-04-03T10:30:08.154Z,0.40
2024-04-03T10:32:36.376Z,0.40
2024-04-03T10:35:05.945Z,0.50
2024-04-03T10:37:35.226Z,0.50
2024-04-03T10:40:04.151Z,0.60
2024-04-03T10:42:32.178Z,1.20
2024-04-03T10:45:02.272Z,0.70
2024-04-03T10:47:30.573Z,0.40
2024-04-03T10:49:59.070Z,0.50
2024-04-03T10:52:27.299Z,0.50
2024-04-03T10:54:56.595Z,0.60
2024-04-03T10:57:24.613Z,0.40
2024-04-03T10:59:56.870Z,0.50
2024-04-03T11:02:24.882Z,0.30
2024-04-03T11:04:52.870Z,0.40
2024-04-03T11:07:21.027Z,0.70
2024-04-03T11:09:49.937Z,0.40
2024-04-03T11:12:19.949Z,0.30
2024-04-03T11:14:57.026Z,0.40
2024-04-03T11:17:24.991Z,0.40
2024-04-03T11:19:53.598Z,0.40
2024-04-03T11:22:21.799Z,0.50
2024-04-03T11:24:50.129Z,0.40
2024-04-03T11:27:18.181Z,0.90
2024-04-03T11:29:46.223Z,0.80
2024-04-03T11:32:17.423Z,0.40
2024-04-03T11:34:45.471Z,0.60
2024-04-03T11:37:16.245Z,0.30
2024-04-03T11:39:44.519Z,0.60
2024-04-03T11:42:13.326Z,0.60
2024-04-03T11:44:41.705Z,0.60
2024-04-03T11:47:10.014Z,0.30
2024-04-03T11:49:38.275Z,0.50
2024-04-03T11:52:08.150Z,0.60
2024-04-03T11:54:36.116Z,0.40
2024-04-03T11:57:04.351Z,0.80
2024-04-03T11:59:32.754Z,0.80
2024-04-03T12:02:01.015Z,0.50
2024-04-03T12:04:29.401Z,0.50
2024-04-03T12:06:57.683Z,1.00
2024-04-03T12:09:26.387Z,0.70
2024-04-03T12:11:54.957Z,0.90
2024-04-03T12:14:23.258Z,0.70
2024-04-03T12:16:56.265Z,0.60
2024-04-03T12:19:27.896Z,0.50
2024-04-03T12:21:56.910Z,0.50
2024-04-03T12:24:25.581Z,0.60
2024-04-03T12:26:53.677Z,0.60
2024-04-03T12:29:21.772Z,0.90
2024-04-03T12:31:52.882Z,0.50
2024-04-03T12:34:21.548Z,0.80
2024-04-03T12:37:05.318Z,0.50
2024-04-03T12:39:39.548Z,0.40
2024-04-03T12:42:07.587Z,0.90
2024-04-03T12:44:35.576Z,0.70
2024-04-03T12:47:08.195Z,0.70
2024-04-03T12:49:36.675Z,0.30
2024-04-03T12:52:05.686Z,0.50
2024-04-03T12:54:33.765Z,1.40
2024-04-03T12:57:01.953Z,1.60
2024-04-03T12:59:30.161Z,1.40
2024-04-03T13:01:58.205Z,1.70
2024-04-03T13:04:26.303Z,0.80
2024-04-03T13:06:54.556Z,1.40
2024-04-03T13:09:22.621Z,0.60
2024-04-03T13:11:50.874Z,0.70
2024-04-03T13:14:19.283Z,0.50
2024-04-03T13:16:47.454Z,0.60
2024-04-03T13:19:15.635Z,0.20
2024-04-03T13:21:44.217Z,0.30
2024-04-03T13:24:12.165Z,0.30
2024-04-03T13:26:41.469Z,0.40
2024-04-03T13:29:10.405Z,0.60
2024-04-03T13:31:38.617Z,0.50
2024-04-03T13:34:07.345Z,0.40
2024-04-03T13:36:35.389Z,0.70
2024-04-03T13:39:08.306Z,0.40
2024-04-03T13:44:05.346Z,0.60
2024-04-03T13:46:34.866Z,0.50
2024-04-03T13:49:04.429Z,0.40
2024-04-03T13:51:32.663Z,0.40
2024-04-03T13:54:02.474Z,0.40
2024-04-03T13:56:30.737Z,0.70
2024-04-03T13:58:58.721Z,0.40
2024-04-03T14:01:26.861Z,0.30
2024-04-03T14:03:54.897Z,0.20
2024-04-03T14:06:23.035Z,0.30
2024-04-03T14:08:53.859Z,0.30
2024-04-03T14:11:23.528Z,0.20
2024-04-03T14:13:53.001Z,0.50
2024-04-03T14:16:20.991Z,0.50
2024-04-03T14:18:49.361Z,0.30
2024-04-03T14:21:17.822Z,1.40
2024-04-03T14:23:46.130Z,0.70
2024-04-03T14:26:14.293Z,0.50
2024-04-03T14:28:43.124Z,0.50
2024-04-03T14:31:11.283Z,0.20
2024-04-03T14:33:39.378Z,4.40
2024-04-03T14:36:07.912Z,3.50
2024-04-03T14:38:36.162Z,0.60
2024-04-03T14:41:04.923Z,0.40
2024-04-03T14:43:33.410Z,0.50
2024-04-03T14:46:02.209Z,0.50
2024-04-03T14:48:30.987Z,0.40
2024-04-03T14:50:59.503Z,0.40
2024-04-03T14:53:28.170Z,0.30
2024-04-03T14:55:57.018Z,0.70
2024-04-03T14:58:25.181Z,0.40
2024-04-03T15:00:53.330Z,0.60
2024-04-03T15:03:21.540Z,0.50
2024-04-03T15:05:50.290Z,0.40
2024-04-03T15:08:21.941Z,0.50
2024-04-03T15:10:52.961Z,0.40
2024-04-03T15:13:21.063Z,0.50
2024-04-03T15:15:49.590Z,0.50
2024-04-03T15:18:17.915Z,0.40
2024-04-03T15:20:46.922Z,0.50
2024-04-03T15:23:15.222Z,0.50
2024-04-03T15:25:44.087Z,0.50
2024-04-03T15:28:12.184Z,0.50
2024-04-03T15:30:40.760Z,1.20
2024-04-03T15:33:08.854Z,0.60
2024-04-03T15:35:38.574Z,0.70
2024-04-03T15:38:06.546Z,0.60
2024-04-03T15:40:35.674Z,0.50
2024-04-03T15:43:04.517Z,0.30
2024-04-03T15:45:32.565Z,0.70
2024-04-03T15:48:02.265Z,0.80
2024-04-03T15:50:30.571Z,0.70
2024-04-03T15:53:04.238Z,0.90
2024-04-03T15:55:32.710Z,0.90
2024-04-03T15:58:00.687Z,0.70
2024-04-03T16:00:29.931Z,0.80
2024-04-03T16:02:58.186Z,0.90
2024-04-03T16:05:26.232Z,0.80
2024-04-03T16:07:54.489Z,2.80
2024-04-03T16:10:22.734Z,2.30
2024-04-03T16:12:51.012Z,0.70
2024-04-03T16:15:19.906Z,0.70
2024-04-03T16:17:48.983Z,1.30
2024-04-03T16:20:18.506Z,1.00
2024-04-03T16:22:46.885Z,1.40
2024-04-03T16:25:15.098Z,1.20
2024-04-03T16:27:45.484Z,0.70
2024-04-03T16:30:13.893Z,1.00
2024-04-03T16:32:41.919Z,1.50
2024-04-03T16:35:12.598Z,1.10
2024-04-03T16:37:40.830Z,1.20
2024-04-03T16:40:09.755Z,1.00
2024-04-03T16:42:38.938Z,1.10
2024-04-03T16:45:07.953Z,1.40
2024-04-03T16:47:35.968Z,1.70
2024-04-03T16:50:04.537Z,1.60
2024-04-03T16:52:32.616Z,1.90
2024-04-03T16:55:00.999Z,2.40
2024-04-03T16:57:29.106Z,2.90
2024-04-03T16:59:57.321Z,2.90
2024-04-03T17:02:25.376Z,2.00
2024-04-03T17:04:53.523Z,2.30
2024-04-03T17:07:24.462Z,2.50
2024-04-03T17:09:52.546Z,2.80
2024-04-03T17:12:20.782Z,2.50
2024-04-03T17:14:49.200Z,1.90
2024-04-03T17:17:17.819Z,2.30
2024-04-03T17:19:46.167Z,2.20
2024-04-03T17:22:14.684Z,2.10
2024-04-03T17:24:43.094Z,2.30
2024-04-03T17:27:11.596Z,2.40
2024-04-03T17:29:42.654Z,3.20
2024-04-03T17:32:10.965Z,2.90
2024-04-03T17:34:40.603Z,3.60
2024-04-03T17:37:08.928Z,3.70
2024-04-03T17:39:37.594Z,4.50
2024-04-03T17:42:06.250Z,3.40
2024-04-03T17:44:34.236Z,3.00
2024-04-03T17:47:10.836Z,2.60
2024-04-03T17:49:40.040Z,2.20
2024-04-03T17:52:08.833Z,1.90
2024-04-03T17:54:36.920Z,2.70
2024-04-03T17:57:06.205Z,2.50
2024-04-03T17:59:34.244Z,3.30
2024-04-03T18:02:02.202Z,2.70
2024-04-03T18:04:30.293Z,2.80
2024-04-03T18:06:58.530Z,4.20
2024-04-03T18:09:27.074Z,3.20
2024-04-03T18:11:55.547Z,3.50
2024-04-03T18:14:23.501Z,4.20
2024-04-03T18:16:52.120Z,3.80
2024-04-03T18:19:20.959Z,6.30
2024-04-03T18:21:49.158Z,5.10
2024-04-03T18:24:17.686Z,3.60
2024-04-03T18:26:46.689Z,4.50
2024-04-03T18:29:14.774Z,5.00
2024-04-03T18:31:42.827Z,3.90
2024-04-03T18:34:11.013Z,5.20
2024-04-03T18:36:39.305Z,4.40
2024-04-03T18:39:08.601Z,4.70
2024-04-03T18:41:36.822Z,4.50
2024-04-03T18:44:05.355Z,4.50
2024-04-03T18:46:33.297Z,4.80
2024-04-03T18:49:02.349Z,5.30
2024-04-03T18:51:30.520Z,4.30
2024-04-03T18:53:58.753Z,3.40
2024-04-03T18:56:27.133Z,4.10
2024-04-03T18:58:55.059Z,4.10
2024-04-03T19:01:23.370Z,4.00
2024-04-03T19:03:51.309Z,4.80
2024-04-03T19:06:19.508Z,3.90
2024-04-03T19:08:47.644Z,6.00
2024-04-03T19:11:16.374Z,5.50
2024-04-03T19:13:44.545Z,5.00
2024-04-03T19:16:13.668Z,4.20
2024-04-03T19:18:45.771Z,5.00
2024-04-03T19:21:15.521Z,4.50
2024-04-03T19:23:44.033Z,4.00
2024-04-03T19:26:11.967Z,4.90
2024-04-03T19:28:42.003Z,4.80
2024-04-03T19:31:10.924Z,4.20
2024-04-03T19:33:39.033Z,4.20
2024-04-03T19:36:07.995Z,4.00
2024-04-03T19:38:39.916Z,4.40
2024-04-03T19:41:08.048Z,4.90
2024-04-03T19:43:36.044Z,4.70
2024-04-03T19:46:04.610Z,5.50
2024-04-03T19:48:32.703Z,4.20
2024-04-03T19:51:01.012Z,6.10
2024-04-03T19:53:36.021Z,5.40
2024-04-03T19:56:04.649Z,4.40
2024-04-03T19:58:32.722Z,5.20
2024-04-03T20:01:05.763Z,4.30
2024-04-03T20:03:33.824Z,4.90
2024-04-03T20:06:02.478Z,4.90
2024-04-03T20:08:30.780Z,5.50
2024-04-03T20:10:59.031Z,4.60
2024-04-03T20:13:28.492Z,5.10
2024-04-03T20:15:56.727Z,4.40
2024-04-03T20:18:25.061Z,5.10
2024-04-03T20:20:53.018Z,4.10
2024-04-03T20:23:21.018Z,4.10
2024-04-03T20:25:49.244Z,5.80
2024-04-03T20:28:17.985Z,4.10
2024-04-03T20:30:46.431Z,4.00
2024-04-03T20:33:14.579Z,5.70
2024-04-03T20:35:47.431Z,3.70
2024-04-03T20:38:15.904Z,5.80
2024-04-03T20:40:44.793Z,4.50
2024-04-03T20:43:12.766Z,4.40
2024-04-03T20:45:41.649Z,5.50
2024-04-03T20:48:10.304Z,4.50
2024-04-03T20:50:40.246Z,4.60
2024-04-03T20:53:08.480Z,4.20
2024-04-03T20:55:36.504Z,3.70
2024-04-03T20:58:05.164Z,3.00
2024-04-03T21:00:33.374Z,3.80
2024-04-03T21:03:01.531Z,3.90
2024-04-03T21:05:30.629Z,4.00
2024-04-03T21:07:59.001Z,4.00
2024-04-03T21:10:27.111Z,3.50
2024-04-03T21:12:55.271Z,3.90
2024-04-03T21:15:23.508Z,4.60
2024-04-03T21:17:51.583Z,3.70
2024-04-03T21:20:19.667Z,4.20
2024-04-03T21:22:47.591Z,4.00
2024-04-03T21:25:15.564Z,4.00
2024-04-03T21:27:43.918Z,4.10
2024-04-03T21:30:15.180Z,4.40
2024-04-03T21:32:43.485Z,4.40
2024-04-03T21:35:12.042Z,4.00
2024-04-03T21:37:40.035Z,4.10
2024-04-03T21:40:09.075Z,3.50
2024-04-03T21:42:37.230Z,4.00
2024-04-03T21:45:05.925Z,4.60
2024-04-03T21:47:34.603Z,4.60
2024-04-03T21:50:02.906Z,5.00
2024-04-03T21:52:32.067Z,4.70
2024-04-03T21:55:00.446Z,4.70
2024-04-03T21:57:28.733Z,4.40
2024-04-03T21:59:56.937Z,5.40
2024-04-03T22:02:25.576Z,4.40
2024-04-03T22:04:53.710Z,5.20
2024-04-03T22:07:21.909Z,4.80
2024-04-03T22:09:50.133Z,4.00
2024-04-03T22:12:18.369Z,4.10
2024-04-03T22:14:46.442Z,6.40
2024-04-03T22:17:14.582Z,4.20
2024-04-03T22:19:42.808Z,4.70
2024-04-03T22:22:11.270Z,4.00
2024-04-03T22:24:39.221Z,4.50
2024-04-03T22:27:07.142Z,4.50
2024-04-03T22:29:35.130Z,4.00
2024-04-03T22:32:03.277Z,4.10
2024-04-03T22:34:31.358Z,3.90
2024-04-03T22:36:59.294Z,4.30
2024-04-03T22:39:27.508Z,4.10
2024-04-03T22:41:55.455Z,4.20
2024-04-03T22:44:24.078Z,4.60
2024-04-03T22:46:52.222Z,4.20
2024-04-03T22:49:22.070Z,4.00
2024-04-03T22:51:50.329Z,4.10
2024-04-03T22:54:18.810Z,4.50
2024-04-03T22:56:47.038Z,3.80
2024-04-03T22:59:15.279Z,3.80
2024-04-03T23:01:43.243Z,3.80
2024-04-03T23:04:11.186Z,3.50
2024-04-03T23:06:39.130Z,3.60
2024-04-03T23:09:07.280Z,3.00
2024-04-03T23:11:35.791Z,3.30
2024-04-03T23:14:03.950Z,3.40
2024-04-03T23:16:32.272Z,3.70
2024-04-03T23:19:00.530Z,3.50
2024-04-03T23:21:28.899Z,3.70
2024-04-03T23:23:57.071Z,3.70
2024-04-03T23:26:25.416Z,3.70
2024-04-03T23:28:54.948Z,3.90
2024-04-03T23:31:23.370Z,3.80
2024-04-03T23:33:51.786Z,3.30
2024-04-03T23:36:19.947Z,4.10
2024-04-03T23:38:48.117Z,3.30
2024-04-03T23:41:16.285Z,3.50
2024-04-03T23:43:44.763Z,3.00
2024-04-03T23:46:12.717Z,3.10
2024-04-03T23:48:40.911Z,2.90
2024-04-03T23:51:09.017Z,3.60
2024-04-03T23:53:37.484Z,3.00
2024-04-03T23:56:08.284Z,2.70
2024-04-03T23:58:36.671Z,2.70
